Edgar B Speer — WQZ9670 — position and weather

sailwx.info

Track history (hours):
 
Tides and Currents Weather Stations Pressure Air Temp Water Temp Dewpoint Dewpoint Depression Visibility Wind Speed Wind Dir Waves Ship Positions

Edgar B Speer

Owner: Great Lakes Fleet, Inc, DULUTH, MN. More information available from US FCC via Universal Licensing System and Coast Guard Vessel Documentation Center.

Last reported at 2016-Jan-10 12:14 UTC. Time now 2016-Feb-13 21:31 UTC.
Position N 47°01' W 091°33'.
Warning: this ship's position is 34 days out of date.

Length 306 m; draft 8.7 m.

Type: Cargo ship. MMSI: 366971330.

Date/timePositionNaut miles runAvg speedWind from/ knotsBaromVisibWave heightAir tempDewpointWater temp
2016-Jan-10 12:14N 47°01' W 091°33'5 0.3
2016-Jan-09 18:33N 47°01' W 091°40'3 2.7
2016-Jan-09 17:33N 46°58' W 091°42'9 9.1
2016-Jan-09 16:32N 46°52' W 091°51'1010.1
2016-Jan-09 15:33N 46°45' W 092°02'0 0.1
2016-Jan-09 14:33N 46°45' W 092°02'0 0.0
2016-Jan-09 13:33N 46°45' W 092°02'0 0.0
2016-Jan-09 12:33N 46°45' W 092°02'0 0.0
2016-Jan-09 11:24N 46°45' W 092°02'0 0.0
2016-Jan-09 10:24N 46°45' W 092°02'0 0.1
2016-Jan-09 09:27N 46°45' W 092°02'0 0.1
2016-Jan-09 08:24N 46°45' W 092°02'0 0.1
2016-Jan-09 07:27N 46°45' W 092°02'0 0.0
2016-Jan-09 06:30N 46°45' W 092°02'0 0.0
2016-Jan-09 05:30N 46°45' W 092°02'0 0.0
2016-Jan-09 04:33N 46°45' W 092°02'0 0.0
2016-Jan-09 03:33N 46°45' W 092°02'0 0.0
2016-Jan-09 02:33N 46°45' W 092°02'0 0.0
2016-Jan-09 01:30N 46°45' W 092°02'0 0.1
2016-Jan-09 00:34N 46°45' W 092°02'9 8.7
2016-Jan-08 23:33N 46°51' W 091°52'9 9.0
2016-Jan-08 22:32N 46°54' W 091°39'9 9.1
2016-Jan-08 21:31N 46°57' W 091°27'314 8.1
2016-Jan-07 06:33N 45°54' W 084°00'1312.9
2016-Jan-07 05:33N 45°51' W 084°18'1312.7
2016-Jan-07 04:33N 45°51' W 084°37'1211.8
2016-Jan-07 03:33N 45°49' W 084°53'1110.8
2016-Jan-07 02:33N 45°47' W 085°09'1212.2
2016-Jan-07 01:33N 45°37' W 085°18'1413.6
2016-Jan-07 00:33N 45°26' W 085°29'1413.8
2016-Jan-06 23:33N 45°15' W 085°41'1313.4
2016-Jan-06 22:33N 45°04' W 085°53'1313.2
2016-Jan-06 21:33N 44°56' W 086°08'11 0.3
2016-Jan-05 00:33N 45°01' W 086°23'1412.5
2016-Jan-04 23:28N 45°14' W 086°17'1112.5
2016-Jan-04 22:33N 45°25' W 086°13'1212.6
2016-Jan-04 21:34N 45°37' W 086°08'1211.8
2016-Jan-04 20:33N 45°45' W 085°56'1312.6
2016-Jan-04 19:34N 45°52' W 085°40'1212.2
2016-Jan-04 18:34N 45°53' W 085°23'1312.6
2016-Jan-04 17:34N 45°52' W 085°05'1313.0
2016-Jan-04 16:34N 45°49' W 084°47'1212.2
2016-Jan-04 15:34N 45°52' W 084°30'1312.6
2016-Jan-04 14:34N 45°53' W 084°12'1212.3
2016-Jan-04 13:34N 45°56' W 083°55'321 8.9
2016-Jan-03 01:28N 47°04' W 091°31'7 7.6
2016-Jan-03 00:33N 47°01' W 091°40'0 0.0
2016-Jan-02 13:32N 47°01' W 091°40'1 0.7
2016-Jan-02 12:31N 47°00' W 091°41'7 7.3
2016-Jan-02 11:30N 47°02' W 091°30'  
Track history (hours):
 
Tides and Currents Weather Stations Pressure Air Temp Water Temp Dewpoint Dewpoint Depression Visibility Wind Speed Wind Dir Waves Ship Positions

Edgar B Speer

Owner: Great Lakes Fleet, Inc, DULUTH, MN. More information available from US FCC via Universal Licensing System and Coast Guard Vessel Documentation Center.

Last reported at 2016-Jan-10 12:14 UTC. Time now 2016-Feb-13 21:31 UTC.
Position N 47°01' W 091°33'.
Warning: this ship's position is 34 days out of date.

Length 306 m; draft 8.7 m.

Type: Cargo ship. MMSI: 366971330.

Date/timePositionNaut miles runAvg speedWind from/ knotsBaromVisibWave heightAir tempDewpointWater temp
2016-Jan-10 12:14N 47°01' W 091°33'5 0.3
2016-Jan-09 18:33N 47°01' W 091°40'3 2.7
2016-Jan-09 17:33N 46°58' W 091°42'9 9.1
2016-Jan-09 16:32N 46°52' W 091°51'1010.1
2016-Jan-09 15:33N 46°45' W 092°02'0 0.1
2016-Jan-09 14:33N 46°45' W 092°02'0 0.0
2016-Jan-09 13:33N 46°45' W 092°02'0 0.0
2016-Jan-09 12:33N 46°45' W 092°02'0 0.0
2016-Jan-09 11:24N 46°45' W 092°02'0 0.0
2016-Jan-09 10:24N 46°45' W 092°02'0 0.1
2016-Jan-09 09:27N 46°45' W 092°02'0 0.1
2016-Jan-09 08:24N 46°45' W 092°02'0 0.1
2016-Jan-09 07:27N 46°45' W 092°02'0 0.0
2016-Jan-09 06:30N 46°45' W 092°02'0 0.0
2016-Jan-09 05:30N 46°45' W 092°02'0 0.0
2016-Jan-09 04:33N 46°45' W 092°02'0 0.0
2016-Jan-09 03:33N 46°45' W 092°02'0 0.0
2016-Jan-09 02:33N 46°45' W 092°02'0 0.0
2016-Jan-09 01:30N 46°45' W 092°02'0 0.1
2016-Jan-09 00:34N 46°45' W 092°02'9 8.7
2016-Jan-08 23:33N 46°51' W 091°52'9 9.0
2016-Jan-08 22:32N 46°54' W 091°39'9 9.1
2016-Jan-08 21:31N 46°57' W 091°27'314 8.1
2016-Jan-07 06:33N 45°54' W 084°00'1312.9
2016-Jan-07 05:33N 45°51' W 084°18'1312.7
2016-Jan-07 04:33N 45°51' W 084°37'1211.8
2016-Jan-07 03:33N 45°49' W 084°53'1110.8
2016-Jan-07 02:33N 45°47' W 085°09'1212.2
2016-Jan-07 01:33N 45°37' W 085°18'1413.6
2016-Jan-07 00:33N 45°26' W 085°29'1413.8
2016-Jan-06 23:33N 45°15' W 085°41'1313.4
2016-Jan-06 22:33N 45°04' W 085°53'1313.2
2016-Jan-06 21:33N 44°56' W 086°08'11 0.3
2016-Jan-05 00:33N 45°01' W 086°23'1412.5
2016-Jan-04 23:28N 45°14' W 086°17'1112.5
2016-Jan-04 22:33N 45°25' W 086°13'1212.6
2016-Jan-04 21:34N 45°37' W 086°08'1211.8
2016-Jan-04 20:33N 45°45' W 085°56'1312.6
2016-Jan-04 19:34N 45°52' W 085°40'1212.2
2016-Jan-04 18:34N 45°53' W 085°23'1312.6
2016-Jan-04 17:34N 45°52' W 085°05'1313.0
2016-Jan-04 16:34N 45°49' W 084°47'1212.2
2016-Jan-04 15:34N 45°52' W 084°30'1312.6
2016-Jan-04 14:34N 45°53' W 084°12'1212.3
2016-Jan-04 13:34N 45°56' W 083°55'321 8.9
2016-Jan-03 01:28N 47°04' W 091°31'7 7.6
2016-Jan-03 00:33N 47°01' W 091°40'0 0.0
2016-Jan-02 13:32N 47°01' W 091°40'1 0.7
2016-Jan-02 12:31N 47°00' W 091°41'7 7.3
2016-Jan-02 11:30N 47°02' W 091°30'  

Dump ship's entire track history